sensor_id;sensor_type;location;lat;lon;timestamp;P1;durP1;ratioP1;P2;durP2;ratioP2
41532;SDS011;27262;-35.248;149.138;2023-04-03T00:00:22;1.30;;;0.40;;
41532;SDS011;27262;-35.248;149.138;2023-04-03T00:02:52;2.10;;;0.50;;
41532;SDS011;27262;-35.248;149.138;2023-04-03T00:05:23;1.50;;;0.43;;
41532;SDS011;27262;-35.248;149.138;2023-04-03T00:07:53;4.10;;;0.60;;
41532;SDS011;27262;-35.248;149.138;2023-04-03T00:10:24;1.77;;;0.32;;
41532;SDS011;27262;-35.248;149.138;2023-04-03T00:12:54;4.22;;;0.47;;
41532;SDS011;27262;-35.248;149.138;2023-04-03T00:15:24;3.47;;;0.50;;
41532;SDS011;27262;-35.248;149.138;2023-04-03T00:17:55;1.60;;;0.30;;
41532;SDS011;27262;-35.248;149.138;2023-04-03T00:20:25;1.23;;;0.50;;
41532;SDS011;27262;-35.248;149.138;2023-04-03T00:22:56;0.93;;;0.40;;
41532;SDS011;27262;-35.248;149.138;2023-04-03T00:25:26;2.33;;;0.60;;
41532;SDS011;27262;-35.248;149.138;2023-04-03T00:27:57;3.40;;;0.60;;
41532;SDS011;27262;-35.248;149.138;2023-04-03T00:30:27;0.75;;;0.35;;
41532;SDS011;27262;-35.248;149.138;2023-04-03T00:32:58;1.50;;;0.40;;
41532;SDS011;27262;-35.248;149.138;2023-04-03T00:35:29;3.70;;;0.55;;
41532;SDS011;27262;-35.248;149.138;2023-04-03T00:38:00;2.70;;;0.40;;
41532;SDS011;27262;-35.248;149.138;2023-04-03T00:40:33;0.77;;;0.45;;
41532;SDS011;27262;-35.248;149.138;2023-04-03T00:43:23;0.73;;;0.28;;
41532;SDS011;27262;-35.248;149.138;2023-04-03T00:45:55;3.88;;;0.30;;
41532;SDS011;27262;-35.248;149.138;2023-04-03T00:48:31;2.17;;;0.40;;
41532;SDS011;27262;-35.248;149.138;2023-04-03T00:51:11;1.55;;;0.60;;
41532;SDS011;27262;-35.248;149.138;2023-04-03T00:53:50;2.85;;;0.40;;
41532;SDS011;27262;-35.248;149.138;2023-04-03T00:56:28;1.73;;;0.50;;
41532;SDS011;27262;-35.248;149.138;2023-04-03T00:59:08;3.95;;;0.50;;
41532;SDS011;27262;-35.248;149.138;2023-04-03T01:01:45;6.60;;;0.60;;
41532;SDS011;27262;-35.248;149.138;2023-04-03T01:04:35;3.05;;;0.30;;
41532;SDS011;27262;-35.248;149.138;2023-04-03T01:07:12;1.05;;;0.43;;
41532;SDS011;27262;-35.248;149.138;2023-04-03T01:09:47;1.75;;;0.35;;
41532;SDS011;27262;-35.248;149.138;2023-04-03T01:14:55;1.48;;;0.40;;
41532;SDS011;27262;-35.248;149.138;2023-04-03T01:17:37;4.07;;;0.55;;
41532;SDS011;27262;-35.248;149.138;2023-04-03T01:28:24;2.95;;;0.50;;
41532;SDS011;27262;-35.248;149.138;2023-04-03T01:33:46;3.13;;;0.60;;
41532;SDS011;27262;-35.248;149.138;2023-04-03T01:36:17;2.95;;;0.50;;
41532;SDS011;27262;-35.248;149.138;2023-04-03T01:38:57;0.55;;;0.30;;
41532;SDS011;27262;-35.248;149.138;2023-04-03T01:41:28;0.95;;;0.52;;
41532;SDS011;27262;-35.248;149.138;2023-04-03T01:43:58;1.85;;;0.30;;
41532;SDS011;27262;-35.248;149.138;2023-04-03T01:46:29;3.13;;;0.35;;
41532;SDS011;27262;-35.248;149.138;2023-04-03T01:48:59;1.77;;;0.40;;
41532;SDS011;27262;-35.248;149.138;2023-04-03T01:51:30;0.95;;;0.43;;
41532;SDS011;27262;-35.248;149.138;2023-04-03T01:54:01;2.58;;;0.55;;
41532;SDS011;27262;-35.248;149.138;2023-04-03T01:56:32;1.02;;;0.40;;
41532;SDS011;27262;-35.248;149.138;2023-04-03T01:59:03;0.75;;;0.40;;
41532;SDS011;27262;-35.248;149.138;2023-04-03T02:01:33;1.25;;;0.28;;
41532;SDS011;27262;-35.248;149.138;2023-04-03T02:04:04;1.30;;;0.30;;
41532;SDS011;27262;-35.248;149.138;2023-04-03T02:06:35;1.30;;;0.40;;
41532;SDS011;27262;-35.248;149.138;2023-04-03T02:09:07;2.97;;;0.57;;
41532;SDS011;27262;-35.248;149.138;2023-04-03T02:11:37;2.25;;;0.38;;
41532;SDS011;27262;-35.248;149.138;2023-04-03T02:14:08;0.80;;;0.50;;
41532;SDS011;27262;-35.248;149.138;2023-04-03T02:16:38;2.28;;;0.20;;
41532;SDS011;27262;-35.248;149.138;2023-04-03T02:19:09;1.98;;;0.35;;
41532;SDS011;27262;-35.248;149.138;2023-04-03T02:21:40;1.75;;;0.30;;
41532;SDS011;27262;-35.248;149.138;2023-04-03T02:24:10;2.75;;;0.35;;
41532;SDS011;27262;-35.248;149.138;2023-04-03T02:26:41;0.93;;;0.30;;
41532;SDS011;27262;-35.248;149.138;2023-04-03T02:29:11;1.65;;;0.32;;
41532;SDS011;27262;-35.248;149.138;2023-04-03T02:31:42;0.82;;;0.50;;
41532;SDS011;27262;-35.248;149.138;2023-04-03T02:34:12;1.23;;;0.40;;
41532;SDS011;27262;-35.248;149.138;2023-04-03T02:36:42;2.55;;;0.32;;
41532;SDS011;27262;-35.248;149.138;2023-04-03T02:39:13;2.78;;;0.35;;
41532;SDS011;27262;-35.248;149.138;2023-04-03T02:41:44;1.65;;;0.47;;
41532;SDS011;27262;-35.248;149.138;2023-04-03T02:44:14;2.05;;;0.30;;
41532;SDS011;27262;-35.248;149.138;2023-04-03T02:46:45;2.13;;;0.30;;
41532;SDS011;27262;-35.248;149.138;2023-04-03T02:49:15;1.15;;;0.40;;
41532;SDS011;27262;-35.248;149.138;2023-04-03T02:51:45;1.27;;;0.32;;
41532;SDS011;27262;-35.248;149.138;2023-04-03T02:54:16;0.22;;;0.20;;
41532;SDS011;27262;-35.248;149.138;2023-04-03T02:56:46;1.25;;;0.30;;
41532;SDS011;27262;-35.248;149.138;2023-04-03T02:59:16;2.28;;;0.52;;
41532;SDS011;27262;-35.248;149.138;2023-04-03T03:01:46;5.65;;;0.60;;
41532;SDS011;27262;-35.248;149.138;2023-04-03T03:04:17;4.10;;;0.45;;
41532;SDS011;27262;-35.248;149.138;2023-04-03T03:06:47;4.45;;;0.60;;
41532;SDS011;27262;-35.248;149.138;2023-04-03T03:09:19;4.38;;;0.47;;
41532;SDS011;27262;-35.248;149.138;2023-04-03T03:11:49;3.70;;;0.50;;
41532;SDS011;27262;-35.248;149.138;2023-04-03T03:14:19;15.13;;;0.90;;
41532;SDS011;27262;-35.248;149.138;2023-04-03T03:16:50;1.90;;;0.40;;
41532;SDS011;27262;-35.248;149.138;2023-04-03T03:19:20;4.05;;;0.90;;
41532;SDS011;27262;-35.248;149.138;2023-04-03T03:21:50;3.65;;;0.60;;
41532;SDS011;27262;-35.248;149.138;2023-04-03T03:24:21;3.72;;;0.40;;
41532;SDS011;27262;-35.248;149.138;2023-04-03T03:26:51;1.33;;;0.38;;
41532;SDS011;27262;-35.248;149.138;2023-04-03T03:29:21;3.00;;;0.30;;
41532;SDS011;27262;-35.248;149.138;2023-04-03T03:31:51;2.45;;;0.50;;
41532;SDS011;27262;-35.248;149.138;2023-04-03T03:34:22;4.47;;;0.60;;
41532;SDS011;27262;-35.248;149.138;2023-04-03T03:36:52;1.25;;;0.30;;
41532;SDS011;27262;-35.248;149.138;2023-04-03T03:39:23;2.65;;;0.50;;
41532;SDS011;27262;-35.248;149.138;2023-04-03T03:41:53;1.63;;;0.50;;
41532;SDS011;27262;-35.248;149.138;2023-04-03T03:44:24;0.88;;;0.40;;
41532;SDS011;27262;-35.248;149.138;2023-04-03T03:46:54;4.57;;;0.50;;
41532;SDS011;27262;-35.248;149.138;2023-04-03T03:49:25;4.55;;;0.32;;
41532;SDS011;27262;-35.248;149.138;2023-04-03T03:51:55;1.52;;;0.40;;
41532;SDS011;27262;-35.248;149.138;2023-04-03T03:54:25;1.52;;;0.50;;
41532;SDS011;27262;-35.248;149.138;2023-04-03T03:56:55;2.35;;;0.50;;
41532;SDS011;27262;-35.248;149.138;2023-04-03T03:59:26;1.65;;;0.50;;
41532;SDS011;27262;-35.248;149.138;2023-04-03T04:01:56;1.67;;;0.30;;
41532;SDS011;27262;-35.248;149.138;2023-04-03T04:04:26;0.47;;;0.20;;
41532;SDS011;27262;-35.248;149.138;2023-04-03T04:06:57;1.42;;;0.20;;
41532;SDS011;27262;-35.248;149.138;2023-04-03T04:09:28;4.10;;;0.20;;
41532;SDS011;27262;-35.248;149.138;2023-04-03T04:12:03;2.20;;;0.57;;
41532;SDS011;27262;-35.248;149.138;2023-04-03T04:14:34;2.30;;;0.40;;
41532;SDS011;27262;-35.248;149.138;2023-04-03T04:17:04;2.38;;;0.63;;
41532;SDS011;27262;-35.248;149.138;2023-04-03T04:19:35;3.22;;;0.45;;
41532;SDS011;27262;-35.248;149.138;2023-04-03T04:22:05;1.25;;;0.40;;
41532;SDS011;27262;-35.248;149.138;2023-04-03T04:24:36;2.30;;;0.40;;
41532;SDS011;27262;-35.248;149.138;2023-04-03T04:27:06;2.08;;;0.43;;
41532;SDS011;27262;-35.248;149.138;2023-04-03T04:29:36;1.02;;;0.40;;
41532;SDS011;27262;-35.248;149.138;2023-04-03T04:32:07;0.75;;;0.38;;
41532;SDS011;27262;-35.248;149.138;2023-04-03T04:34:37;2.05;;;0.50;;
41532;SDS011;27262;-35.248;149.138;2023-04-03T04:37:07;1.45;;;0.30;;
41532;SDS011;27262;-35.248;149.138;2023-04-03T04:39:38;0.80;;;0.30;;
41532;SDS011;27262;-35.248;149.138;2023-04-03T04:42:08;2.08;;;0.40;;
41532;SDS011;27262;-35.248;149.138;2023-04-03T04:44:43;3.58;;;0.40;;
41532;SDS011;27262;-35.248;149.138;2023-04-03T04:47:14;2.47;;;0.45;;
41532;SDS011;27262;-35.248;149.138;2023-04-03T04:49:45;0.88;;;0.38;;
41532;SDS011;27262;-35.248;149.138;2023-04-03T04:52:15;1.95;;;0.50;;
41532;SDS011;27262;-35.248;149.138;2023-04-03T04:54:46;0.30;;;0.30;;
41532;SDS011;27262;-35.248;149.138;2023-04-03T04:57:16;3.35;;;0.40;;
41532;SDS011;27262;-35.248;149.138;2023-04-03T04:59:47;1.65;;;0.40;;
41532;SDS011;27262;-35.248;149.138;2023-04-03T05:02:17;1.92;;;0.40;;
41532;SDS011;27262;-35.248;149.138;2023-04-03T05:04:47;3.38;;;0.30;;
41532;SDS011;27262;-35.248;149.138;2023-04-03T05:07:19;1.85;;;0.50;;
41532;SDS011;27262;-35.248;149.138;2023-04-03T05:09:49;2.80;;;0.43;;
41532;SDS011;27262;-35.248;149.138;2023-04-03T05:12:20;0.70;;;0.50;;
41532;SDS011;27262;-35.248;149.138;2023-04-03T05:14:50;0.50;;;0.30;;
41532;SDS011;27262;-35.248;149.138;2023-04-03T05:17:20;0.68;;;0.30;;
41532;SDS011;27262;-35.248;149.138;2023-04-03T05:19:51;0.95;;;0.40;;
41532;SDS011;27262;-35.248;149.138;2023-04-03T05:22:21;0.82;;;0.30;;
41532;SDS011;27262;-35.248;149.138;2023-04-03T05:24:51;0.60;;;0.40;;
41532;SDS011;27262;-35.248;149.138;2023-04-03T05:27:22;1.00;;;0.30;;
41532;SDS011;27262;-35.248;149.138;2023-04-03T05:29:52;1.98;;;0.50;;
41532;SDS011;27262;-35.248;149.138;2023-04-03T05:32:23;1.95;;;0.40;;
41532;SDS011;27262;-35.248;149.138;2023-04-03T05:34:55;1.58;;;0.45;;
41532;SDS011;27262;-35.248;149.138;2023-04-03T05:37:27;1.67;;;0.63;;
41532;SDS011;27262;-35.248;149.138;2023-04-03T05:39:57;1.50;;;0.60;;
41532;SDS011;27262;-35.248;149.138;2023-04-03T05:42:28;1.58;;;0.50;;
41532;SDS011;27262;-35.248;149.138;2023-04-03T05:44:58;1.80;;;0.50;;
41532;SDS011;27262;-35.248;149.138;2023-04-03T05:47:28;1.00;;;0.57;;
41532;SDS011;27262;-35.248;149.138;2023-04-03T05:49:59;4.05;;;0.50;;
41532;SDS011;27262;-35.248;149.138;2023-04-03T05:52:30;4.95;;;0.65;;
41532;SDS011;27262;-35.248;149.138;2023-04-03T05:55:04;3.38;;;0.50;;
41532;SDS011;27262;-35.248;149.138;2023-04-03T05:57:35;6.13;;;0.68;;
41532;SDS011;27262;-35.248;149.138;2023-04-03T06:00:06;2.50;;;0.57;;
41532;SDS011;27262;-35.248;149.138;2023-04-03T06:02:38;1.55;;;0.40;;
41532;SDS011;27262;-35.248;149.138;2023-04-03T06:05:08;4.55;;;0.73;;
41532;SDS011;27262;-35.248;149.138;2023-04-03T06:07:40;3.42;;;0.50;;
41532;SDS011;27262;-35.248;149.138;2023-04-03T06:10:12;5.65;;;0.75;;
41532;SDS011;27262;-35.248;149.138;2023-04-03T06:12:43;5.03;;;0.60;;
41532;SDS011;27262;-35.248;149.138;2023-04-03T06:15:13;2.00;;;0.65;;
41532;SDS011;27262;-35.248;149.138;2023-04-03T06:17:45;2.92;;;0.43;;
41532;SDS011;27262;-35.248;149.138;2023-04-03T06:20:16;1.90;;;0.68;;
41532;SDS011;27262;-35.248;149.138;2023-04-03T06:22:46;5.15;;;0.63;;
41532;SDS011;27262;-35.248;149.138;2023-04-03T06:25:17;2.78;;;0.40;;
41532;SDS011;27262;-35.248;149.138;2023-04-03T06:27:48;5.57;;;0.68;;
41532;SDS011;27262;-35.248;149.138;2023-04-03T06:30:18;1.30;;;0.52;;
41532;SDS011;27262;-35.248;149.138;2023-04-03T06:32:49;2.10;;;0.40;;
41532;SDS011;27262;-35.248;149.138;2023-04-03T06:35:20;1.38;;;0.55;;
41532;SDS011;27262;-35.248;149.138;2023-04-03T06:37:52;2.80;;;0.60;;
41532;SDS011;27262;-35.248;149.138;2023-04-03T06:40:23;1.77;;;0.47;;
41532;SDS011;27262;-35.248;149.138;2023-04-03T06:42:55;1.90;;;0.70;;
41532;SDS011;27262;-35.248;149.138;2023-04-03T06:45:25;2.15;;;0.90;;
41532;SDS011;27262;-35.248;149.138;2023-04-03T06:47:56;6.85;;;0.85;;
41532;SDS011;27262;-35.248;149.138;2023-04-03T06:50:26;4.47;;;0.70;;
41532;SDS011;27262;-35.248;149.138;2023-04-03T06:52:57;9.10;;;0.98;;
41532;SDS011;27262;-35.248;149.138;2023-04-03T06:55:28;4.03;;;0.80;;
41532;SDS011;27262;-35.248;149.138;2023-04-03T06:57:58;5.43;;;1.00;;
41532;SDS011;27262;-35.248;149.138;2023-04-03T07:00:29;5.53;;;0.90;;
41532;SDS011;27262;-35.248;149.138;2023-04-03T07:03:00;5.53;;;1.00;;
41532;SDS011;27262;-35.248;149.138;2023-04-03T07:05:30;6.15;;;0.90;;
41532;SDS011;27262;-35.248;149.138;2023-04-03T07:08:00;6.25;;;0.90;;
41532;SDS011;27262;-35.248;149.138;2023-04-03T07:10:30;1.98;;;0.70;;
41532;SDS011;27262;-35.248;149.138;2023-04-03T07:13:01;3.47;;;0.80;;
41532;SDS011;27262;-35.248;149.138;2023-04-03T07:15:31;3.03;;;0.90;;
41532;SDS011;27262;-35.248;149.138;2023-04-03T07:18:02;6.57;;;0.82;;
41532;SDS011;27262;-35.248;149.138;2023-04-03T07:20:34;2.28;;;0.70;;
41532;SDS011;27262;-35.248;149.138;2023-04-03T07:23:05;5.10;;;0.93;;
41532;SDS011;27262;-35.248;149.138;2023-04-03T07:25:35;3.85;;;0.75;;
41532;SDS011;27262;-35.248;149.138;2023-04-03T07:28:06;5.10;;;0.80;;
41532;SDS011;27262;-35.248;149.138;2023-04-03T07:30:44;2.85;;;0.90;;
41532;SDS011;27262;-35.248;149.138;2023-04-03T07:33:16;2.25;;;0.60;;
41532;SDS011;27262;-35.248;149.138;2023-04-03T07:35:48;3.90;;;0.70;;
41532;SDS011;27262;-35.248;149.138;2023-04-03T07:38:28;4.05;;;0.73;;
41532;SDS011;27262;-35.248;149.138;2023-04-03T07:40:59;4.15;;;0.77;;
41532;SDS011;27262;-35.248;149.138;2023-04-03T07:43:29;2.05;;;0.70;;
41532;SDS011;27262;-35.248;149.138;2023-04-03T07:45:59;2.45;;;0.50;;
41532;SDS011;27262;-35.248;149.138;2023-04-03T07:48:30;3.45;;;0.68;;
41532;SDS011;27262;-35.248;149.138;2023-04-03T07:51:00;6.55;;;1.15;;
41532;SDS011;27262;-35.248;149.138;2023-04-03T07:53:32;13.65;;;1.00;;
41532;SDS011;27262;-35.248;149.138;2023-04-03T07:56:02;4.85;;;1.00;;
41532;SDS011;27262;-35.248;149.138;2023-04-03T07:58:33;2.33;;;0.73;;
41532;SDS011;27262;-35.248;149.138;2023-04-03T08:01:03;6.15;;;1.00;;
41532;SDS011;27262;-35.248;149.138;2023-04-03T08:03:34;2.30;;;0.57;;
41532;SDS011;27262;-35.248;149.138;2023-04-03T08:06:07;5.70;;;0.60;;
41532;SDS011;27262;-35.248;149.138;2023-04-03T08:08:42;1.15;;;0.60;;
41532;SDS011;27262;-35.248;149.138;2023-04-03T08:11:12;1.52;;;0.68;;
41532;SDS011;27262;-35.248;149.138;2023-04-03T08:13:43;2.45;;;0.70;;
41532;SDS011;27262;-35.248;149.138;2023-04-03T08:16:18;2.38;;;0.50;;
41532;SDS011;27262;-35.248;149.138;2023-04-03T08:18:50;1.58;;;0.77;;
41532;SDS011;27262;-35.248;149.138;2023-04-03T08:21:21;3.28;;;0.60;;
41532;SDS011;27262;-35.248;149.138;2023-04-03T08:23:52;5.95;;;0.60;;
41532;SDS011;27262;-35.248;149.138;2023-04-03T08:26:22;4.80;;;0.57;;
41532;SDS011;27262;-35.248;149.138;2023-04-03T08:28:55;1.88;;;0.70;;
41532;SDS011;27262;-35.248;149.138;2023-04-03T08:31:25;2.42;;;0.50;;
41532;SDS011;27262;-35.248;149.138;2023-04-03T08:33:56;3.45;;;1.15;;
41532;SDS011;27262;-35.248;149.138;2023-04-03T08:36:28;1.25;;;0.50;;
41532;SDS011;27262;-35.248;149.138;2023-04-03T08:38:59;1.58;;;0.70;;
41532;SDS011;27262;-35.248;149.138;2023-04-03T08:41:31;3.22;;;0.80;;
41532;SDS011;27262;-35.248;149.138;2023-04-03T08:44:07;2.15;;;0.93;;
41532;SDS011;27262;-35.248;149.138;2023-04-03T08:52:38;3.80;;;1.88;;
41532;SDS011;27262;-35.248;149.138;2023-04-03T08:58:09;6.15;;;1.85;;
41532;SDS011;27262;-35.248;149.138;2023-04-03T09:03:29;3.08;;;1.60;;
41532;SDS011;27262;-35.248;149.138;2023-04-03T09:06:13;3.90;;;1.48;;
41532;SDS011;27262;-35.248;149.138;2023-04-03T09:09:02;2.58;;;1.40;;
41532;SDS011;27262;-35.248;149.138;2023-04-03T09:18:20;3.30;;;1.40;;
41532;SDS011;27262;-35.248;149.138;2023-04-03T09:24:05;2.15;;;1.00;;
41532;SDS011;27262;-35.248;149.138;2023-04-03T09:26:44;2.78;;;0.98;;
41532;SDS011;27262;-35.248;149.138;2023-04-03T09:29:35;1.52;;;0.93;;
41532;SDS011;27262;-35.248;149.138;2023-04-03T09:43:32;2.45;;;0.90;;
41532;SDS011;27262;-35.248;149.138;2023-04-03T09:46:17;1.45;;;0.80;;
41532;SDS011;27262;-35.248;149.138;2023-04-03T09:48:59;3.15;;;1.05;;
41532;SDS011;27262;-35.248;149.138;2023-04-03T09:51:35;4.18;;;1.30;;
41532;SDS011;27262;-35.248;149.138;2023-04-03T09:56:55;3.95;;;0.93;;
41532;SDS011;27262;-35.248;149.138;2023-04-03T09:59:37;3.83;;;0.90;;
41532;SDS011;27262;-35.248;149.138;2023-04-03T10:02:24;3.63;;;1.00;;
41532;SDS011;27262;-35.248;149.138;2023-04-03T10:08:07;1.38;;;0.75;;
41532;SDS011;27262;-35.248;149.138;2023-04-03T10:11:09;1.88;;;0.82;;
41532;SDS011;27262;-35.248;149.138;2023-04-03T10:13:54;2.15;;;0.88;;
41532;SDS011;27262;-35.248;149.138;2023-04-03T10:16:35;1.55;;;0.80;;
41532;SDS011;27262;-35.248;149.138;2023-04-03T10:19:43;2.20;;;1.17;;
41532;SDS011;27262;-35.248;149.138;2023-04-03T10:30:29;1.50;;;0.88;;
41532;SDS011;27262;-35.248;149.138;2023-04-03T10:33:11;4.05;;;1.00;;
41532;SDS011;27262;-35.248;149.138;2023-04-03T10:39:08;2.10;;;1.00;;
41532;SDS011;27262;-35.248;149.138;2023-04-03T10:47:20;1.33;;;0.70;;
41532;SDS011;27262;-35.248;149.138;2023-04-03T10:55:32;1.63;;;0.63;;
41532;SDS011;27262;-35.248;149.138;2023-04-03T10:58:21;3.60;;;1.00;;
41532;SDS011;27262;-35.248;149.138;2023-04-03T11:01:34;1.60;;;0.68;;
41532;SDS011;27262;-35.248;149.138;2023-04-03T11:04:08;1.50;;;0.80;;
41532;SDS011;27262;-35.248;149.138;2023-04-03T11:06:53;2.33;;;0.80;;
41532;SDS011;27262;-35.248;149.138;2023-04-03T11:14:46;2.63;;;0.57;;
41532;SDS011;27262;-35.248;149.138;2023-04-03T11:17:22;3.42;;;0.73;;
41532;SDS011;27262;-35.248;149.138;2023-04-03T11:25:55;5.00;;;0.90;;
41532;SDS011;27262;-35.248;149.138;2023-04-03T11:28:34;5.50;;;1.15;;
41532;SDS011;27262;-35.248;149.138;2023-04-03T11:36:42;1.20;;;0.75;;
41532;SDS011;27262;-35.248;149.138;2023-04-03T11:42:15;3.33;;;0.70;;
41532;SDS011;27262;-35.248;149.138;2023-04-03T11:45:15;1.02;;;0.60;;
41532;SDS011;27262;-35.248;149.138;2023-04-03T11:48:02;1.73;;;0.70;;
41532;SDS011;27262;-35.248;149.138;2023-04-03T11:50:50;3.47;;;0.75;;
41532;SDS011;27262;-35.248;149.138;2023-04-03T11:55:58;1.55;;;0.65;;
41532;SDS011;27262;-35.248;149.138;2023-04-03T11:58:33;2.05;;;0.55;;
41532;SDS011;27262;-35.248;149.138;2023-04-03T12:01:11;1.90;;;0.60;;
41532;SDS011;27262;-35.248;149.138;2023-04-03T12:04:13;1.35;;;0.90;;
41532;SDS011;27262;-35.248;149.138;2023-04-03T12:09:26;3.38;;;0.88;;
41532;SDS011;27262;-35.248;149.138;2023-04-03T12:21:14;0.85;;;0.70;;
41532;SDS011;27262;-35.248;149.138;2023-04-03T12:26:26;3.85;;;0.70;;
41532;SDS011;27262;-35.248;149.138;2023-04-03T12:46:35;0.82;;;0.70;;
41532;SDS011;27262;-35.248;149.138;2023-04-03T12:52:30;1.33;;;0.73;;
41532;SDS011;27262;-35.248;149.138;2023-04-03T12:55:23;0.85;;;0.60;;
41532;SDS011;27262;-35.248;149.138;2023-04-03T12:57:54;0.73;;;0.60;;
41532;SDS011;27262;-35.248;149.138;2023-04-03T13:00:32;1.60;;;0.60;;
41532;SDS011;27262;-35.248;149.138;2023-04-03T13:03:18;0.60;;;0.50;;
41532;SDS011;27262;-35.248;149.138;2023-04-03T13:05:54;1.35;;;0.80;;
41532;SDS011;27262;-35.248;149.138;2023-04-03T13:08:28;0.63;;;0.50;;
41532;SDS011;27262;-35.248;149.138;2023-04-03T13:11:03;1.08;;;0.50;;
41532;SDS011;27262;-35.248;149.138;2023-04-03T13:13:45;0.70;;;0.50;;
41532;SDS011;27262;-35.248;149.138;2023-04-03T13:16:25;0.95;;;0.50;;
41532;SDS011;27262;-35.248;149.138;2023-04-03T13:18:55;0.80;;;0.50;;
41532;SDS011;27262;-35.248;149.138;2023-04-03T13:21:44;0.90;;;0.43;;
41532;SDS011;27262;-35.248;149.138;2023-04-03T13:24:35;1.00;;;0.68;;
41532;SDS011;27262;-35.248;149.138;2023-04-03T13:27:10;1.45;;;0.50;;
41532;SDS011;27262;-35.248;149.138;2023-04-03T13:29:41;1.33;;;0.73;;
41532;SDS011;27262;-35.248;149.138;2023-04-03T13:32:19;1.15;;;0.70;;
41532;SDS011;27262;-35.248;149.138;2023-04-03T13:34:51;0.50;;;0.50;;
41532;SDS011;27262;-35.248;149.138;2023-04-03T13:37:27;0.55;;;0.43;;
41532;SDS011;27262;-35.248;149.138;2023-04-03T13:40:11;0.90;;;0.60;;
41532;SDS011;27262;-35.248;149.138;2023-04-03T13:42:42;2.28;;;0.63;;
41532;SDS011;27262;-35.248;149.138;2023-04-03T13:47:52;0.90;;;0.52;;
41532;SDS011;27262;-35.248;149.138;2023-04-03T13:50:50;0.88;;;0.60;;
41532;SDS011;27262;-35.248;149.138;2023-04-03T13:53:27;1.17;;;0.50;;
41532;SDS011;27262;-35.248;149.138;2023-04-03T13:58:34;0.65;;;0.50;;
41532;SDS011;27262;-35.248;149.138;2023-04-03T14:03:51;0.63;;;0.40;;
41532;SDS011;27262;-35.248;149.138;2023-04-03T14:06:24;0.98;;;0.50;;
41532;SDS011;27262;-35.248;149.138;2023-04-03T14:08:55;1.02;;;0.40;;
41532;SDS011;27262;-35.248;149.138;2023-04-03T14:11:26;1.77;;;0.68;;
41532;SDS011;27262;-35.248;149.138;2023-04-03T14:14:05;0.88;;;0.50;;
41532;SDS011;27262;-35.248;149.138;2023-04-03T14:16:42;0.55;;;0.40;;
41532;SDS011;27262;-35.248;149.138;2023-04-03T14:19:22;1.73;;;0.50;;
41532;SDS011;27262;-35.248;149.138;2023-04-03T14:21:59;1.75;;;0.50;;
41532;SDS011;27262;-35.248;149.138;2023-04-03T14:24:30;0.98;;;0.63;;
41532;SDS011;27262;-35.248;149.138;2023-04-03T14:27:00;1.45;;;0.60;;
41532;SDS011;27262;-35.248;149.138;2023-04-03T14:29:31;1.38;;;0.57;;
41532;SDS011;27262;-35.248;149.138;2023-04-03T14:32:01;0.75;;;0.50;;
41532;SDS011;27262;-35.248;149.138;2023-04-03T14:34:41;0.77;;;0.40;;
41532;SDS011;27262;-35.248;149.138;2023-04-03T14:37:12;1.50;;;0.57;;
41532;SDS011;27262;-35.248;149.138;2023-04-03T14:39:46;0.80;;;0.45;;
41532;SDS011;27262;-35.248;149.138;2023-04-03T14:42:17;0.70;;;0.50;;
41532;SDS011;27262;-35.248;149.138;2023-04-03T14:44:50;0.57;;;0.40;;
41532;SDS011;27262;-35.248;149.138;2023-04-03T14:47:25;1.02;;;0.60;;
41532;SDS011;27262;-35.248;149.138;2023-04-03T14:50:02;0.80;;;0.45;;
41532;SDS011;27262;-35.248;149.138;2023-04-03T14:52:34;1.20;;;0.50;;
41532;SDS011;27262;-35.248;149.138;2023-04-03T14:55:07;1.05;;;0.52;;
41532;SDS011;27262;-35.248;149.138;2023-04-03T14:57:37;2.03;;;0.50;;
41532;SDS011;27262;-35.248;149.138;2023-04-03T15:00:13;1.73;;;0.60;;
41532;SDS011;27262;-35.248;149.138;2023-04-03T15:02:45;1.60;;;0.50;;
41532;SDS011;27262;-35.248;149.138;2023-04-03T15:05:17;1.83;;;0.40;;
41532;SDS011;27262;-35.248;149.138;2023-04-03T15:07:49;1.08;;;0.35;;
41532;SDS011;27262;-35.248;149.138;2023-04-03T15:10:28;0.65;;;0.50;;
41532;SDS011;27262;-35.248;149.138;2023-04-03T15:12:59;0.93;;;0.50;;
41532;SDS011;27262;-35.248;149.138;2023-04-03T15:15:30;0.95;;;0.40;;
41532;SDS011;27262;-35.248;149.138;2023-04-03T15:18:00;0.68;;;0.30;;
41532;SDS011;27262;-35.248;149.138;2023-04-03T15:20:30;0.80;;;0.47;;
41532;SDS011;27262;-35.248;149.138;2023-04-03T15:23:02;0.93;;;0.50;;
41532;SDS011;27262;-35.248;149.138;2023-04-03T15:25:33;0.85;;;0.47;;
41532;SDS011;27262;-35.248;149.138;2023-04-03T15:28:03;0.45;;;0.40;;
41532;SDS011;27262;-35.248;149.138;2023-04-03T15:30:35;0.65;;;0.50;;
41532;SDS011;27262;-35.248;149.138;2023-04-03T15:33:08;0.40;;;0.40;;
41532;SDS011;27262;-35.248;149.138;2023-04-03T15:35:39;0.50;;;0.38;;
41532;SDS011;27262;-35.248;149.138;2023-04-03T15:38:09;0.45;;;0.40;;
41532;SDS011;27262;-35.248;149.138;2023-04-03T15:40:40;0.63;;;0.40;;
41532;SDS011;27262;-35.248;149.138;2023-04-03T15:43:12;0.68;;;0.45;;
41532;SDS011;27262;-35.248;149.138;2023-04-03T15:45:43;0.65;;;0.50;;
41532;SDS011;27262;-35.248;149.138;2023-04-03T15:48:14;1.17;;;0.50;;
41532;SDS011;27262;-35.248;149.138;2023-04-03T15:50:44;1.30;;;0.40;;
41532;SDS011;27262;-35.248;149.138;2023-04-03T15:53:14;1.58;;;0.50;;
41532;SDS011;27262;-35.248;149.138;2023-04-03T15:55:45;0.40;;;0.40;;
41532;SDS011;27262;-35.248;149.138;2023-04-03T15:58:16;1.00;;;0.40;;
41532;SDS011;27262;-35.248;149.138;2023-04-03T16:00:46;0.52;;;0.47;;
41532;SDS011;27262;-35.248;149.138;2023-04-03T16:03:18;0.95;;;0.55;;
41532;SDS011;27262;-35.248;149.138;2023-04-03T16:05:51;0.43;;;0.35;;
41532;SDS011;27262;-35.248;149.138;2023-04-03T16:08:22;0.50;;;0.38;;
41532;SDS011;27262;-35.248;149.138;2023-04-03T16:10:55;0.55;;;0.38;;
41532;SDS011;27262;-35.248;149.138;2023-04-03T16:13:26;0.68;;;0.40;;
41532;SDS011;27262;-35.248;149.138;2023-04-03T16:15:56;0.50;;;0.30;;
41532;SDS011;27262;-35.248;149.138;2023-04-03T16:18:27;0.98;;;0.50;;
41532;SDS011;27262;-35.248;149.138;2023-04-03T16:20:58;0.47;;;0.40;;
41532;SDS011;27262;-35.248;149.138;2023-04-03T16:23:29;0.47;;;0.30;;
41532;SDS011;27262;-35.248;149.138;2023-04-03T16:25:59;0.77;;;0.40;;
41532;SDS011;27262;-35.248;149.138;2023-04-03T16:28:30;0.80;;;0.40;;
41532;SDS011;27262;-35.248;149.138;2023-04-03T16:31:00;0.43;;;0.40;;
41532;SDS011;27262;-35.248;149.138;2023-04-03T16:33:31;0.60;;;0.40;;
41532;SDS011;27262;-35.248;149.138;2023-04-03T16:36:03;1.00;;;0.30;;
41532;SDS011;27262;-35.248;149.138;2023-04-03T16:38:34;0.70;;;0.50;;
41532;SDS011;27262;-35.248;149.138;2023-04-03T16:41:04;1.85;;;0.50;;
41532;SDS011;27262;-35.248;149.138;2023-04-03T16:43:35;0.60;;;0.45;;
41532;SDS011;27262;-35.248;149.138;2023-04-03T16:46:05;0.60;;;0.40;;
41532;SDS011;27262;-35.248;149.138;2023-04-03T16:48:35;0.30;;;0.30;;
41532;SDS011;27262;-35.248;149.138;2023-04-03T16:51:06;1.05;;;0.40;;
41532;SDS011;27262;-35.248;149.138;2023-04-03T16:53:36;0.60;;;0.30;;
41532;SDS011;27262;-35.248;149.138;2023-04-03T16:56:06;0.65;;;0.40;;
41532;SDS011;27262;-35.248;149.138;2023-04-03T16:58:36;0.47;;;0.40;;
41532;SDS011;27262;-35.248;149.138;2023-04-03T17:01:14;0.45;;;0.30;;
41532;SDS011;27262;-35.248;149.138;2023-04-03T17:03:46;0.55;;;0.40;;